Time;durP1;ratioP1;P1;durP2;ratioP2;P2;SDS_P1;SDS_P2;PMS_P1;PMS_P2;Temp;Humidity;BMP_temperature;BMP_pressure;BME280_temperature;BME280_humidity;BME280_pressure;Samples;Min_cycle;Max_cycle;Signal;HPM_P1;HPM_P2
2022/12/13 00:00:07;;;;;;;0.00;0.00;;;14.70;65.10;;;;;;4177932;28;20063;-61
2022/12/13 00:02:52;;;;;;;0.60;0.45;;;14.70;65.30;;;;;;4177806;28;20422;-61
2022/12/13 00:05:33;;;;;;;0.95;0.95;;;14.70;65.20;;;;;;4177877;28;20495;-60
2022/12/13 00:08:14;;;;;;;0.28;0.28;;;14.80;65.10;;;;;;4177697;28;20052;-61
2022/12/13 00:11:00;;;;;;;4.97;1.63;;;14.80;64.90;;;;;;4177855;28;20060;-60
2022/12/13 00:13:43;;;;;;;0.32;0.32;;;14.80;65.00;;;;;;4205123;28;20055;-61
2022/12/13 00:16:25;;;;;;;0.20;0.20;;;14.80;64.80;;;;;;4177483;28;20439;-60
2022/12/13 00:19:06;;;;;;;0.00;0.00;;;14.90;64.60;;;;;;4177427;28;20052;-61
2022/12/13 00:21:47;;;;;;;0.10;0.10;;;14.80;64.50;;;;;;4206558;28;20055;-60
2022/12/13 00:24:27;;;;;;;0.38;0.38;;;14.90;64.50;;;;;;4210557;28;20062;-60
2022/12/13 00:27:10;;;;;;;0.43;0.43;;;14.90;64.30;;;;;;4210665;28;20056;-60
2022/12/13 00:29:51;;;;;;;0.30;0.30;;;14.90;64.20;;;;;;4209202;28;20498;-61
2022/12/13 00:32:32;;;;;;;0.10;0.10;;;14.90;64.10;;;;;;4181313;28;20067;-61
2022/12/13 00:35:13;;;;;;;1.60;0.57;;;14.90;64.20;;;;;;4177316;28;20067;-60
2022/12/13 00:37:54;;;;;;;;;;;14.80;64.30;;;;;;4176424;28;20087;-59
2022/12/13 00:40:35;;;;;;;1.15;1.05;;;14.70;64.40;;;;;;4189007;28;19931;-61
2022/12/13 00:43:18;;;;;;;2.70;1.45;;;14.70;64.60;;;;;;4209798;28;20173;-61
2022/12/13 00:45:58;;;;;;;0.35;0.35;;;14.60;64.90;;;;;;4210501;28;20062;-61
2022/12/13 00:48:40;;;;;;;0.20;0.20;;;14.60;64.90;;;;;;4160742;28;20087;-61
2022/12/13 00:51:22;;;;;;;2.45;1.05;;;14.50;65.00;;;;;;4202063;28;20078;-61
2022/12/13 00:54:03;;;;;;;0.40;0.40;;;14.50;65.20;;;;;;4210316;28;20054;-58
2022/12/13 00:56:44;;;;;;;2.45;0.93;;;14.50;65.20;;;;;;4210356;28;20055;-58
2022/12/13 00:59:26;;;;;;;0.77;0.47;;;14.60;65.00;;;;;;4210166;28;20059;-58
2022/12/13 01:02:07;;;;;;;0.63;0.63;;;14.70;64.50;;;;;;4180439;28;20411;-58
2022/12/13 01:04:50;;;;;;;0.47;0.47;;;14.70;64.30;;;;;;4208340;28;20054;-59
2022/12/13 01:07:30;;;;;;;0.00;0.00;;;14.70;64.10;;;;;;4209536;28;20051;-60
2022/12/13 01:10:12;;;;;;;0.63;0.63;;;14.70;64.20;;;;;;4203930;28;20093;-57
2022/12/13 01:12:54;;;;;;;;;;;14.70;64.30;;;;;;4193641;28;20309;-60
2022/12/13 01:15:40;;;;;;;0.20;0.20;;;14.70;64.50;;;;;;4193208;28;20500;-60
2022/12/13 01:18:20;;;;;;;0.25;0.25;;;14.70;64.30;;;;;;4192881;28;20190;-60
2022/12/13 01:21:04;;;;;;;0.08;0.08;;;14.80;64.10;;;;;;4193332;28;20051;-61
2022/12/13 01:23:45;;;;;;;0.60;0.60;;;14.90;63.80;;;;;;4193147;28;20125;-60
2022/12/13 01:26:26;;;;;;;0.10;0.10;;;14.90;63.50;;;;;;4193037;28;20910;-60
2022/12/13 01:29:10;;;;;;;0.30;0.30;;;15.00;63.00;;;;;;4192980;28;20094;-63
2022/12/13 01:31:52;;;;;;;0.10;0.10;;;15.10;62.60;;;;;;4176539;28;20060;-63
2022/12/13 01:34:33;;;;;;;1.67;1.55;;;15.10;62.30;;;;;;4176299;28;20064;-63
2022/12/13 01:37:16;;;;;;;0.00;0.00;;;15.10;62.00;;;;;;4207598;28;20050;-63
2022/12/13 01:39:57;;;;;;;0.32;0.32;;;15.20;61.90;;;;;;4200920;28;20117;-63
2022/12/13 01:42:38;;;;;;;0.03;0.03;;;15.20;61.80;;;;;;4192439;28;20051;-63
2022/12/13 01:45:25;;;;;;;0.00;0.00;;;15.10;61.90;;;;;;4192672;28;20692;-63
2022/12/13 01:48:10;;;;;;;0.10;0.10;;;15.10;62.00;;;;;;4198659;28;20051;-63
2022/12/13 01:50:55;;;;;;;0.38;0.38;;;15.10;62.10;;;;;;4207960;28;20494;-63
2022/12/13 01:53:38;;;;;;;0.28;0.28;;;15.00;62.30;;;;;;4195148;28;20064;-63
2022/12/13 01:56:25;;;;;;;0.00;0.00;;;15.10;62.50;;;;;;4202823;28;20408;-63
2022/12/13 01:59:08;;;;;;;0.00;0.00;;;15.10;62.20;;;;;;4206515;28;20046;-63
2022/12/13 02:01:50;;;;;;;0.63;0.63;;;15.20;61.90;;;;;;4209253;28;20152;-63
2022/12/13 02:04:40;;;;;;;0.10;0.10;;;15.30;61.70;;;;;;4209019;28;20078;-64
2022/12/13 02:07:29;;;;;;;2.90;0.77;;;15.40;61.30;;;;;;4194395;28;20585;-63
2022/12/13 02:10:11;;;;;;;0.38;0.38;;;15.50;61.00;;;;;;4192311;28;20055;-64
2022/12/13 02:12:52;;;;;;;0.00;0.00;;;15.50;60.80;;;;;;4192445;28;20055;-63
2022/12/13 02:15:41;;;;;;;0.00;0.00;;;15.50;60.80;;;;;;4193389;28;20064;-63
2022/12/13 02:18:38;;;;;;;0.15;0.15;;;15.50;60.60;;;;;;4181749;28;20182;-63
2022/12/13 02:21:24;;;;;;;0.00;0.00;;;15.60;60.40;;;;;;4192287;28;20407;-63
2022/12/13 02:24:43;;;;;;;0.52;0.52;;;15.50;60.40;;;;;;4192174;28;20051;-64
2022/12/13 02:27:43;;;;;;;0.40;0.40;;;15.50;60.50;;;;;;4140180;28;20429;-61
2022/12/13 02:30:29;;;;;;;0.00;0.00;;;15.50;60.40;;;;;;4175760;28;20056;-63
2022/12/13 02:33:24;;;;;;;0.10;0.10;;;15.40;60.70;;;;;;4175725;28;20056;-64
2022/12/13 02:36:11;;;;;;;0.80;0.80;;;15.40;60.70;;;;;;4182203;28;20058;-64
2022/12/13 02:38:58;;;;;;;0.10;0.10;;;15.30;61.00;;;;;;4174235;28;20094;-64
2022/12/13 02:41:44;;;;;;;0.52;0.52;;;15.30;61.20;;;;;;4176564;28;20139;-63
2022/12/13 02:44:29;;;;;;;1.35;0.80;;;15.20;61.30;;;;;;4175649;28;20190;-64
2022/12/13 02:47:15;;;;;;;0.30;0.30;;;15.20;61.40;;;;;;4175844;28;20056;-63
2022/12/13 02:50:06;;;;;;;0.13;0.13;;;15.20;61.30;;;;;;4175165;28;20122;-63
2022/12/13 02:52:48;;;;;;;0.00;0.00;;;15.20;61.20;;;;;;4175709;28;20056;-63
2022/12/13 02:55:31;;;;;;;0.28;0.28;;;15.20;61.20;;;;;;4196673;28;20051;-63
2022/12/13 02:58:13;;;;;;;0.50;0.50;;;15.10;61.20;;;;;;4191791;28;20059;-64
2022/12/13 03:01:03;;;;;;;1.10;1.10;;;15.00;61.50;;;;;;4191835;28;20120;-63
2022/12/13 03:03:55;;;;;;;0.10;0.10;;;15.00;61.90;;;;;;4206726;28;20050;-63
2022/12/13 03:06:45;;;;;;;0.28;0.28;;;15.00;61.80;;;;;;4207092;28;20079;-63
2022/12/13 03:09:43;;;;;;;0.00;0.00;;;15.10;61.60;;;;;;4195874;28;20070;-63
2022/12/13 03:15:38;;;;;;;0.03;0.03;;;15.40;60.70;;;;;;4191258;28;20055;-63
2022/12/13 03:18:22;;;;;;;1.15;1.13;;;15.50;60.30;;;;;;4191824;28;20049;-63
2022/12/13 03:21:08;;;;;;;0.00;0.00;;;15.50;60.00;;;;;;4191393;28;20043;-60
2022/12/13 03:23:49;;;;;;;0.85;0.85;;;15.60;60.00;;;;;;4191448;28;20060;-61
2022/12/13 03:26:30;;;;;;;0.77;0.77;;;15.60;59.90;;;;;;4191942;28;20051;-60
2022/12/13 03:29:11;;;;;;;0.00;0.00;;;15.70;59.70;;;;;;4208542;28;20040;-59
2022/12/13 03:31:52;;;;;;;0.00;0.00;;;15.70;59.40;;;;;;4209415;28;20827;-61
2022/12/13 03:34:33;;;;;;;0.00;0.00;;;15.80;59.30;;;;;;4211280;28;20043;-60
2022/12/13 03:37:24;;;;;;;0.35;0.35;;;15.70;59.30;;;;;;4211253;28;20051;-61
2022/12/13 03:40:06;;;;;;;0.73;0.73;;;15.60;59.40;;;;;;4211277;28;20141;-61
2022/12/13 03:42:47;;;;;;;0.00;0.00;;;15.60;59.60;;;;;;4192833;28;20097;-61
2022/12/13 03:45:28;;;;;;;;;;;15.60;59.60;;;;;;4212128;28;20050;-61
2022/12/13 03:48:09;;;;;;;0.00;0.00;;;15.60;59.40;;;;;;4211317;28;19927;-60
2022/12/13 03:50:51;;;;;;;0.10;0.10;;;15.60;59.40;;;;;;4206152;28;20119;-60
2022/12/13 03:53:33;;;;;;;0.00;0.00;;;15.60;59.50;;;;;;4194512;28;20352;-61
2022/12/13 03:56:14;;;;;;;0.00;0.00;;;15.60;59.50;;;;;;4193371;28;20125;-61
2022/12/13 03:58:55;;;;;;;0.13;0.13;;;15.50;59.40;;;;;;4177970;28;20056;-60
2022/12/13 04:01:36;;;;;;;0.00;0.00;;;15.50;59.70;;;;;;4199665;28;20047;-61
2022/12/13 04:04:17;;;;;;;0.10;0.10;;;15.40;59.70;;;;;;4210931;28;20066;-61
2022/12/13 04:06:58;;;;;;;0.43;0.43;;;15.40;59.70;;;;;;4210779;28;20054;-61
2022/12/13 04:09:40;;;;;;;7.40;4.18;;;15.50;59.70;;;;;;4202435;28;20335;-61
2022/12/13 04:15:22;;;;;;;0.30;0.30;;;15.50;59.60;;;;;;4177559;28;20149;-61
2022/12/13 04:18:03;;;;;;;5.22;0.93;;;15.50;59.40;;;;;;4177804;28;20401;-61
2022/12/13 04:20:44;;;;;;;0.00;0.00;;;15.60;59.30;;;;;;4162247;28;20052;-58
2022/12/13 04:23:24;;;;;;;0.00;0.00;;;15.60;59.20;;;;;;4177361;28;20115;-61
2022/12/13 04:26:07;;;;;;;0.00;0.00;;;15.60;59.30;;;;;;4177246;28;20056;-61
2022/12/13 04:28:48;;;;;;;0.00;0.00;;;15.60;59.30;;;;;;4179311;28;20506;-62
2022/12/13 04:31:34;;;;;;;0.35;0.35;;;15.60;59.10;;;;;;4210708;28;20051;-60
2022/12/13 04:34:15;;;;;;;0.40;0.40;;;15.60;59.00;;;;;;4210924;28;20411;-60
2022/12/13 04:36:56;;;;;;;0.90;0.90;;;15.60;59.00;;;;;;4210554;28;20132;-61
2022/12/13 04:39:37;;;;;;;0.73;0.73;;;15.50;59.00;;;;;;4200036;28;20054;-61
2022/12/13 04:42:19;;;;;;;0.10;0.10;;;15.50;59.20;;;;;;4193364;28;20403;-60
2022/12/13 04:45:00;;;;;;;0.90;0.90;;;15.40;59.30;;;;;;4193430;28;20093;-61
2022/12/13 04:47:41;;;;;;;0.05;0.05;;;15.40;59.50;;;;;;4208690;28;20112;-61
2022/12/13 04:50:22;;;;;;;0.32;0.15;;;15.40;59.50;;;;;;4194735;28;20074;-61
2022/12/13 04:53:03;;;;;;;0.65;0.65;;;15.40;59.40;;;;;;4193494;28;20052;-61
2022/12/13 04:55:44;;;;;;;0.80;0.80;;;15.50;59.30;;;;;;4193645;28;20047;-61
2022/12/13 04:58:27;;;;;;;0.45;0.45;;;15.50;59.10;;;;;;4190578;28;20050;-60
2022/12/13 05:01:08;;;;;;;0.85;0.85;;;15.50;59.00;;;;;;4176806;28;20554;-61
2022/12/13 05:03:49;;;;;;;;;;;15.50;59.00;;;;;;4192196;28;20067;-61
2022/12/13 05:06:30;;;;;;;0.50;0.50;;;15.50;59.00;;;;;;4193156;28;19946;-60
2022/12/13 05:09:10;;;;;;;0.30;0.30;;;15.40;59.10;;;;;;4198442;28;20395;-61
2022/12/13 05:11:51;;;;;;;0.60;0.60;;;15.30;59.30;;;;;;4186822;28;20143;-61
2022/12/13 05:14:34;;;;;;;0.10;0.10;;;15.20;59.50;;;;;;4193234;28;20054;-61
2022/12/13 05:17:15;;;;;;;0.00;0.00;;;15.20;59.60;;;;;;4184036;28;20130;-61
2022/12/13 05:19:56;;;;;;;;;;;15.30;59.40;;;;;;4177200;28;20164;-61
2022/12/13 05:22:37;;;;;;;0.28;0.28;;;15.40;59.20;;;;;;4176350;28;19928;-61
2022/12/13 05:25:18;;;;;;;0.10;0.10;;;15.50;59.10;;;;;;4181893;28;20059;-62
2022/12/13 05:27:59;;;;;;;0.00;0.00;;;15.50;58.90;;;;;;4176291;28;20048;-60
2022/12/13 05:30:42;;;;;;;0.65;0.65;;;15.50;58.70;;;;;;4174979;28;20087;-61
2022/12/13 05:33:24;;;;;;;0.13;0.13;;;15.50;58.70;;;;;;4176177;28;20055;-61
2022/12/13 05:36:06;;;;;;;0.70;0.70;;;15.50;58.70;;;;;;4176197;28;20062;-61
2022/12/13 05:38:47;;;;;;;1.15;1.15;;;15.40;58.70;;;;;;4159592;28;20444;-61
2022/12/13 05:41:31;;;;;;;0.13;0.13;;;15.30;58.80;;;;;;4176291;28;20189;-61
2022/12/13 05:44:13;;;;;;;0.00;0.00;;;15.30;59.10;;;;;;4192873;28;20055;-61
2022/12/13 05:46:55;;;;;;;0.00;0.00;;;15.20;59.20;;;;;;4183538;28;20187;-61
2022/12/13 05:49:36;;;;;;;0.20;0.20;;;15.30;59.20;;;;;;4176114;28;20055;-60
2022/12/13 05:52:21;;;;;;;0.68;0.68;;;15.40;58.90;;;;;;4176223;28;20861;-61
2022/12/13 05:55:11;;;;;;;0.10;0.10;;;15.50;58.70;;;;;;4183779;28;20055;-60
2022/12/13 05:57:51;;;;;;;;;;;15.50;58.50;;;;;;4190658;28;20404;-60
2022/12/13 06:00:32;;;;;;;0.82;0.82;;;15.60;58.40;;;;;;4192281;28;19927;-60
2022/12/13 06:03:14;;;;;;;0.47;0.47;;;15.60;58.20;;;;;;4192651;28;20486;-60
2022/12/13 06:05:55;;;;;;;0.30;0.30;;;15.60;58.20;;;;;;4178316;28;20146;-61
2022/12/13 06:08:37;;;;;;;0.80;0.80;;;15.60;58.30;;;;;;4176074;28;20179;-63
2022/12/13 06:11:18;;;;;;;0.77;0.68;;;15.60;58.20;;;;;;4174887;28;20504;-64
2022/12/13 06:14:10;;;;;;;0.00;0.00;;;15.60;58.20;;;;;;4192333;28;20055;-63
2022/12/13 06:16:52;;;;;;;0.00;0.00;;;15.50;58.20;;;;;;4195065;28;20063;-63
2022/12/13 06:19:34;;;;;;;1.58;1.38;;;15.50;58.40;;;;;;4209296;28;20494;-63
2022/12/13 06:22:15;;;;;;;0.85;0.30;;;15.60;58.40;;;;;;4208992;28;20494;-63
2022/12/13 06:24:57;;;;;;;1.48;1.10;;;15.60;58.20;;;;;;4207904;28;20067;-60
2022/12/13 06:27:38;;;;;;;0.00;0.00;;;15.60;58.10;;;;;;4191278;28;20048;-60
2022/12/13 06:30:19;;;;;;;0.00;0.00;;;15.50;58.10;;;;;;4192736;28;20499;-60
2022/12/13 06:33:00;;;;;;;0.43;0.43;;;15.50;58.20;;;;;;4208639;28;20055;-60
2022/12/13 06:35:42;;;;;;;1.35;0.65;;;15.40;58.30;;;;;;4202606;28;20055;-59
2022/12/13 06:38:24;;;;;;;0.28;0.28;;;15.30;58.60;;;;;;4208699;28;20062;-57
2022/12/13 06:41:13;;;;;;;0.10;0.10;;;15.20;58.80;;;;;;4208073;28;20613;-59
2022/12/13 06:43:55;;;;;;;0.35;0.35;;;15.20;59.00;;;;;;4208806;28;20055;-60
2022/12/13 06:46:36;;;;;;;0.00;0.00;;;15.20;58.90;;;;;;4193068;28;20142;-58
2022/12/13 06:49:20;;;;;;;0.85;0.85;;;15.30;58.80;;;;;;4201609;28;20047;-59
2022/12/13 06:52:03;;;;;;;2.50;2.40;;;15.40;58.90;;;;;;4205322;28;20428;-60
2022/12/13 06:54:44;;;;;;;0.00;0.00;;;15.50;59.30;;;;;;4183675;28;20051;-59
2022/12/13 06:57:25;;;;;;;0.00;0.00;;;15.50;59.40;;;;;;4175457;28;20118;-58
2022/12/13 07:00:07;;;;;;;0.20;0.20;;;15.50;59.20;;;;;;4175463;28;20400;-59
2022/12/13 07:02:52;;;;;;;0.00;0.00;;;15.50;59.10;;;;;;4174341;28;20415;-59
2022/12/13 07:05:33;;;;;;;0.73;0.70;;;15.50;59.10;;;;;;4195669;28;20375;-58
2022/12/13 07:08:15;;;;;;;0.40;0.40;;;15.40;59.20;;;;;;4212119;28;20054;-58
2022/12/13 07:11:02;;;;;;;0.00;0.00;;;15.30;59.30;;;;;;4211529;28;20063;-58
2022/12/13 07:13:44;;;;;;;16.60;4.97;;;15.30;59.40;;;;;;4185631;28;20055;-59
2022/12/13 07:16:25;;;;;;;1.33;1.23;;;15.30;59.40;;;;;;4192351;28;20047;-59
2022/12/13 07:19:06;;;;;;;;;;;15.40;59.40;;;;;;4195562;28;20097;-59
2022/12/13 07:21:53;;;;;;;1.15;0.90;;;15.30;59.40;;;;;;4194921;28;19931;-59
2022/12/13 07:24:35;;;;;;;0.73;0.73;;;15.30;59.60;;;;;;4194797;28;20048;-57
2022/12/13 07:27:16;;;;;;;1.73;1.02;;;15.20;59.80;;;;;;4194928;28;20756;-59
2022/12/13 07:29:57;;;;;;;0.10;0.10;;;15.10;60.10;;;;;;4201027;28;20051;-57
2022/12/13 07:32:38;;;;;;;0.00;0.00;;;15.10;60.30;;;;;;4211656;28;20059;-59
2022/12/13 07:35:19;;;;;;;0.55;0.55;;;15.00;60.30;;;;;;4211407;28;20051;-61
2022/12/13 07:38:00;;;;;;;0.10;0.10;;;14.90;61.30;;;;;;4198514;28;20074;-61
2022/12/13 07:40:42;;;;;;;0.10;0.10;;;14.90;60.70;;;;;;4194519;28;20059;-60
2022/12/13 07:43:23;;;;;;;0.40;0.40;;;14.90;60.90;;;;;;4194858;28;20047;-61
2022/12/13 07:46:05;;;;;;;;;;;14.90;60.80;;;;;;4195291;28;20070;-61
2022/12/13 07:48:47;;;;;;;0.00;0.00;;;15.10;60.50;;;;;;4194534;28;19927;-61
2022/12/13 07:51:28;;;;;;;0.32;0.32;;;15.20;60.20;;;;;;4202248;28;20051;-61
2022/12/13 07:54:09;;;;;;;0.60;0.60;;;15.30;59.90;;;;;;4194137;28;20090;-61
2022/12/13 07:56:51;;;;;;;2.00;1.90;;;15.50;59.60;;;;;;4194300;28;20483;-61
2022/12/13 07:59:32;;;;;;;0.00;0.00;;;15.60;59.20;;;;;;4194351;28;20066;-61
2022/12/13 08:02:14;;;;;;;0.00;0.00;;;15.70;59.00;;;;;;4194039;28;20178;-61
2022/12/13 08:04:54;;;;;;;0.40;0.40;;;15.70;58.80;;;;;;4194199;28;20564;-61
2022/12/13 08:07:35;;;;;;;0.22;0.22;;;15.80;58.60;;;;;;4192556;28;20054;-61
2022/12/13 08:10:16;;;;;;;0.52;0.52;;;15.80;58.30;;;;;;4183012;28;20048;-60
2022/12/13 08:12:58;;;;;;;1.00;1.00;;;15.90;58.10;;;;;;4188676;28;20613;-60
2022/12/13 08:15:39;;;;;;;0.00;0.00;;;15.90;58.10;;;;;;4195479;28;20052;-61
2022/12/13 08:18:20;;;;;;;0.00;0.00;;;15.90;58.10;;;;;;4192828;28;20052;-60
2022/12/13 08:21:03;;;;;;;0.00;0.00;;;15.90;58.10;;;;;;4193998;28;20181;-60
2022/12/13 08:23:53;;;;;;;0.00;0.00;;;16.00;58.60;;;;;;4193987;28;20047;-61
2022/12/13 08:26:34;;;;;;;0.00;0.00;;;16.00;57.60;;;;;;4193663;28;20085;-61
2022/12/13 08:29:17;;;;;;;0.10;0.10;;;16.00;57.60;;;;;;4193072;28;20047;-60
2022/12/13 08:32:05;;;;;;;0.25;0.25;;;16.00;57.60;;;;;;4193812;28;20598;-61
2022/12/13 08:34:46;;;;;;;0.03;0.03;;;15.90;57.80;;;;;;4177132;28;20052;-61
2022/12/13 08:37:27;;;;;;;;;;;15.80;58.10;;;;;;4201857;28;20042;-60
2022/12/13 08:40:09;;;;;;;2.28;1.52;;;15.70;58.20;;;;;;4193733;28;20055;-60
2022/12/13 08:42:50;;;;;;;0.00;0.00;;;15.60;58.50;;;;;;4193685;28;20071;-61
2022/12/13 08:45:33;;;;;;;1.08;1.08;;;15.60;58.70;;;;;;4192734;28;20047;-61
2022/12/13 08:48:14;;;;;;;0.88;0.88;;;15.40;58.90;;;;;;4193468;28;20051;-60
2022/12/13 08:50:59;;;;;;;1.45;1.35;;;15.40;59.20;;;;;;4193653;28;20470;-62
2022/12/13 08:53:39;;;;;;;6.90;2.05;;;15.30;59.30;;;;;;4197260;28;20059;-62
2022/12/13 08:56:21;;;;;;;0.65;0.65;;;15.20;59.60;;;;;;4193367;28;20556;-61
2022/12/13 08:59:02;;;;;;;0.00;0.00;;;15.10;59.80;;;;;;4193128;27;20391;-61
2022/12/13 09:01:45;;;;;;;0.40;0.40;;;15.10;59.80;;;;;;4193305;28;20193;-61
2022/12/13 09:04:26;;;;;;;0.03;0.03;;;15.20;59.80;;;;;;4175341;28;20060;-61
2022/12/13 09:07:11;;;;;;;0.28;0.28;;;15.30;59.50;;;;;;4176649;28;20101;-62
2022/12/13 09:09:53;;;;;;;0.10;0.10;;;15.50;59.90;;;;;;4177028;28;20055;-61
2022/12/13 09:12:36;;;;;;;3.95;0.65;;;15.60;58.80;;;;;;4187464;28;20174;-61
2022/12/13 09:15:21;;;;;;;0.08;0.08;;;15.60;58.60;;;;;;4209340;28;20047;-61
2022/12/13 09:18:04;;;;;;;0.10;0.10;;;15.60;59.20;;;;;;4209525;28;20054;-61
2022/12/13 09:20:45;;;;;;;1.55;1.45;;;15.70;58.40;;;;;;4208184;28;20082;-61
2022/12/13 09:23:27;;;;;;;0.80;0.80;;;15.80;58.20;;;;;;4200659;28;20071;-61
2022/12/13 09:26:10;;;;;;;0.73;0.60;;;15.80;58.20;;;;;;4192953;28;20182;-61
2022/12/13 09:28:51;;;;;;;0.68;0.68;;;15.80;58.90;;;;;;4192145;28;20059;-60
2022/12/13 09:31:33;;;;;;;0.52;0.52;;;15.80;58.00;;;;;;4203716;28;20047;-61
2022/12/13 09:34:16;;;;;;;0.10;0.10;;;15.80;58.00;;;;;;4206886;28;20067;-62
2022/12/13 09:36:58;;;;;;;0.25;0.25;;;15.80;58.00;;;;;;4190531;28;20194;-59
2022/12/13 09:39:41;;;;;;;0.43;0.43;;;15.80;58.00;;;;;;4193497;28;20514;-60
2022/12/13 09:42:24;;;;;;;0.95;0.95;;;15.90;58.00;;;;;;4183189;28;20083;-59
2022/12/13 09:45:11;;;;;;;0.43;0.43;;;15.90;57.80;;;;;;4176209;28;20056;-58
2022/12/13 09:48:05;;;;;;;0.10;0.10;;;15.90;57.80;;;;;;4174704;28;20060;-59
2022/12/13 09:50:52;;;;;;;0.30;0.30;;;15.90;57.80;;;;;;4192960;28;20062;-59
2022/12/13 09:53:40;;;;;;;0.30;0.30;;;15.90;57.90;;;;;;4195056;28;20058;-59
2022/12/13 09:56:23;;;;;;;2.35;2.25;;;15.80;58.70;;;;;;4193603;28;20055;-60
2022/12/13 09:59:04;;;;;;;0.20;0.20;;;15.80;58.20;;;;;;4181014;28;20089;-59
2022/12/13 10:01:45;;;;;;;2.75;0.98;;;15.80;58.20;;;;;;4205393;28;20510;-59
2022/12/13 10:04:29;;;;;;;0.50;0.50;;;15.90;58.10;;;;;;4175948;28;20693;-59
2022/12/13 10:07:17;;;;;;;0.00;0.00;;;15.90;58.80;;;;;;4176010;28;20051;-60
2022/12/13 10:10:00;;;;;;;0.20;0.20;;;15.80;58.00;;;;;;4189275;28;20097;-59
2022/12/13 10:12:43;;;;;;;0.75;0.75;;;15.80;58.10;;;;;;4206725;28;20047;-59
2022/12/13 10:15:25;;;;;;;1.55;1.45;;;15.70;58.20;;;;;;4190320;28;20043;-59
2022/12/13 10:18:09;;;;;;;1.30;1.30;;;15.60;58.40;;;;;;4207944;28;20070;-61
2022/12/13 10:20:50;;;;;;;0.00;0.00;;;15.50;59.30;;;;;;4186543;28;20063;-60
2022/12/13 10:23:32;;;;;;;;;;;15.50;58.80;;;;;;4198639;28;20054;-60
2022/12/13 10:26:37;;;;;;;0.65;0.65;;;15.40;59.00;;;;;;4208533;28;19935;-59
2022/12/13 10:29:18;;;;;;;0.10;0.10;;;15.30;59.20;;;;;;4177315;28;20060;-60
2022/12/13 10:31:59;;;;;;;0.00;0.00;;;15.40;59.30;;;;;;4188515;28;20051;-60
2022/12/13 10:34:40;;;;;;;1.55;1.50;;;15.40;59.20;;;;;;4206565;28;20051;-59
2022/12/13 10:37:28;;;;;;;0.00;0.00;;;15.40;59.20;;;;;;4207297;28;20063;-59
2022/12/13 10:40:30;;;;;;;0.57;0.57;;;15.40;59.10;;;;;;4202518;28;20518;-59
2022/12/13 10:43:16;;;;;;;0.57;0.57;;;15.40;59.10;;;;;;4202320;28;20498;-59
2022/12/13 10:45:59;;;;;;;0.10;0.10;;;15.40;59.20;;;;;;4195679;28;20626;-60
2022/12/13 10:48:48;;;;;;;3.50;1.83;;;15.30;59.30;;;;;;4196684;28;20071;-62
2022/12/13 10:51:39;;;;;;;0.30;0.30;;;15.30;59.50;;;;;;4193660;28;20043;-59
2022/12/13 10:54:28;;;;;;;0.00;0.00;;;15.40;59.40;;;;;;4186939;28;20092;-59
2022/12/13 10:57:11;;;;;;;0.20;0.20;;;15.50;59.20;;;;;;4210403;28;20055;-60
2022/12/13 10:59:52;;;;;;;0.43;0.43;;;15.60;59.00;;;;;;4195216;28;20071;-60
2022/12/13 11:02:36;;;;;;;0.22;0.22;;;15.60;58.60;;;;;;4200950;28;20133;-60
2022/12/13 11:05:24;;;;;;;2.17;1.77;;;15.70;58.50;;;;;;4196822;28;20126;-59
2022/12/13 11:08:20;;;;;;;0.63;0.63;;;15.70;58.40;;;;;;4177469;28;20728;-60
2022/12/13 11:11:04;;;;;;;0.32;0.32;;;15.80;58.20;;;;;;4201933;28;20058;-59
2022/12/13 11:13:51;;;;;;;0.00;0.00;;;15.90;58.20;;;;;;4209938;28;20047;-60
2022/12/13 11:16:35;;;;;;;0.00;0.00;;;15.90;58.10;;;;;;4195077;28;20097;-60
2022/12/13 11:19:22;;;;;;;0.47;0.43;;;15.90;58.10;;;;;;4200413;28;20511;-59
2022/12/13 11:22:03;;;;;;;0.45;0.30;;;16.00;58.00;;;;;;4209987;28;20112;-59
2022/12/13 11:24:50;;;;;;;0.10;0.10;;;16.00;57.80;;;;;;4210845;28;20097;-59
2022/12/13 11:27:47;;;;;;;0.30;0.30;;;16.00;57.80;;;;;;4206236;28;20044;-60
2022/12/13 11:30:38;;;;;;;1.42;1.33;;;16.00;58.20;;;;;;4198608;28;20059;-60
2022/12/13 11:33:26;;;;;;;0.00;0.00;;;16.00;58.60;;;;;;4206252;28;20626;-59
2022/12/13 11:36:20;;;;;;;5.28;1.85;;;16.00;58.90;;;;;;4187235;28;20074;-59
2022/12/13 11:39:14;;;;;;;0.00;0.00;;;16.00;59.10;;;;;;4194410;28;20094;-60
2022/12/13 11:42:00;;;;;;;0.63;0.63;;;16.10;59.00;;;;;;4178117;28;20048;-60
2022/12/13 11:44:45;;;;;;;0.00;0.00;;;16.10;59.00;;;;;;4181216;28;20511;-59
2022/12/13 11:47:33;;;;;;;0.00;0.00;;;16.00;59.10;;;;;;4191814;28;20051;-60
2022/12/13 11:50:17;;;;;;;1.45;1.35;;;16.10;59.20;;;;;;4191914;28;20050;-60
2022/12/13 11:53:24;;;;;;;0.15;0.15;;;16.10;59.10;;;;;;4190244;28;20141;-59
2022/12/13 11:56:13;;;;;;;0.68;0.68;;;16.10;59.10;;;;;;4190743;28;20395;-60
2022/12/13 11:59:01;;;;;;;0.00;0.00;;;16.10;59.30;;;;;;4191565;28;20047;-60
2022/12/13 12:01:51;;;;;;;0.40;0.40;;;16.00;59.50;;;;;;4191797;28;20047;-60
2022/12/13 12:04:37;;;;;;;0.10;0.10;;;16.00;59.90;;;;;;4191264;28;20493;-60
2022/12/13 12:07:24;;;;;;;0.25;0.25;;;15.90;60.30;;;;;;4190581;28;20055;-60
2022/12/13 12:10:24;;;;;;;0.00;0.00;;;15.90;60.70;;;;;;4190860;28;20056;-60
2022/12/13 12:13:12;;;;;;;0.20;0.20;;;15.80;61.00;;;;;;4190816;28;20133;-60
2022/12/13 12:16:05;;;;;;;2.17;2.08;;;15.90;61.00;;;;;;4190709;28;20457;-60
2022/12/13 12:18:46;;;;;;;0.28;0.28;;;15.80;61.00;;;;;;4191422;28;20921;-59
2022/12/13 12:21:37;;;;;;;8.77;1.17;;;15.80;61.20;;;;;;4190949;28;20059;-60
2022/12/13 12:24:52;;;;;;;0.00;0.00;;;15.70;61.70;;;;;;4190811;28;20219;-60
2022/12/13 12:27:43;;;;;;;0.38;0.38;;;15.70;62.10;;;;;;4190658;28;20186;-60
2022/12/13 12:30:26;;;;;;;0.22;0.22;;;15.70;62.30;;;;;;4191149;28;20063;-59
2022/12/13 12:33:19;;;;;;;1.02;1.02;;;15.70;62.30;;;;;;4191057;28;20406;-60
2022/12/13 12:36:15;;;;;;;1.95;0.88;;;15.70;62.40;;;;;;4191077;28;20047;-59
2022/12/13 12:39:18;;;;;;;0.35;0.35;;;15.60;62.60;;;;;;4191395;28;20148;-60
2022/12/13 12:42:16;;;;;;;0.35;0.35;;;15.50;62.80;;;;;;4199395;28;20059;-60
2022/12/13 12:45:10;;;;;;;0.45;0.45;;;15.50;63.30;;;;;;4189322;28;20068;-61
2022/12/13 12:48:15;;;;;;;0.77;0.77;;;15.40;63.70;;;;;;4190294;28;20105;-62
2022/12/13 12:51:21;;;;;;;0.00;0.00;;;15.30;64.20;;;;;;4191190;28;20059;-63
2022/12/13 12:54:18;;;;;;;0.00;0.00;;;15.30;64.60;;;;;;4193192;28;20056;-63
2022/12/13 12:57:09;;;;;;;1.15;1.15;;;15.30;64.60;;;;;;4193230;28;20097;-63
2022/12/13 13:00:01;;;;;;;0.00;0.00;;;15.30;64.60;;;;;;4193185;28;20102;-63
2022/12/13 13:02:49;;;;;;;0.10;0.10;;;15.30;64.60;;;;;;4192574;28;20059;-63
2022/12/13 13:05:35;;;;;;;0.70;0.70;;;15.30;64.90;;;;;;4193316;28;20055;-63
2022/12/13 13:08:23;;;;;;;0.28;0.28;;;15.30;65.10;;;;;;4193076;28;20055;-62
2022/12/13 13:11:07;;;;;;;8.88;1.45;;;15.30;65.20;;;;;;4176706;28;20060;-62
2022/12/13 13:14:07;;;;;;;0.00;0.00;;;15.40;65.00;;;;;;4160241;28;20048;-63
2022/12/13 13:16:48;;;;;;;0.00;0.00;;;15.50;65.00;;;;;;4160199;28;20056;-63
2022/12/13 13:19:46;;;;;;;0.10;0.10;;;15.40;64.80;;;;;;4166046;28;20380;-63
2022/12/13 13:22:30;;;;;;;0.65;0.20;;;15.40;65.00;;;;;;4191626;28;20044;-63
2022/12/13 13:25:25;;;;;;;0.47;0.47;;;15.40;65.20;;;;;;4192649;28;20119;-63
2022/12/13 13:28:15;;;;;;;0.45;0.45;;;15.30;65.40;;;;;;4192666;28;20610;-63
2022/12/13 13:31:05;;;;;;;0.03;0.03;;;15.20;65.60;;;;;;4176625;28;20803;-63
2022/12/13 13:33:47;;;;;;;0.65;0.65;;;15.20;66.00;;;;;;4176101;28;20056;-61
2022/12/13 13:36:51;;;;;;;0.30;0.30;;;15.10;66.40;;;;;;4176269;28;20511;-63
2022/12/13 13:39:56;;;;;;;0.52;0.52;;;15.10;66.60;;;;;;4189505;28;20114;-63
2022/12/13 13:43:05;;;;;;;0.10;0.10;;;15.20;66.70;;;;;;4192687;28;20552;-63
2022/12/13 13:45:58;;;;;;;0.68;0.68;;;15.20;66.60;;;;;;4192457;28;20055;-63
2022/12/13 13:49:00;;;;;;;0.00;0.00;;;15.10;66.50;;;;;;4191902;28;20098;-63
2022/12/13 13:51:58;;;;;;;;;;;15.10;66.60;;;;;;4192468;28;20134;-63
2022/12/13 13:55:31;;;;;;;0.00;0.00;;;15.00;66.60;;;;;;4192435;28;19927;-63
2022/12/13 13:58:40;;;;;;;0.10;0.10;;;14.90;66.80;;;;;;4181159;28;20407;-63
2022/12/13 14:01:55;;;;;;;1.00;1.00;;;14.90;67.10;;;;;;4191293;28;20055;-61
2022/12/13 14:05:21;;;;;;;0.00;0.00;;;14.80;67.40;;;;;;4186291;28;20224;-63
2022/12/13 14:08:32;;;;;;;0.03;0.03;;;14.70;67.80;;;;;;4177396;28;20383;-64
2022/12/13 14:11:49;;;;;;;0.10;0.10;;;14.70;68.40;;;;;;4175878;28;20498;-63
2022/12/13 14:15:12;;;;;;;0.10;0.10;;;14.60;68.70;;;;;;4190434;28;20060;-63
2022/12/13 14:18:43;;;;;;;0.00;0.00;;;14.60;68.90;;;;;;4186451;28;20067;-63
2022/12/13 14:21:33;;;;;;;0.00;0.00;;;14.50;69.20;;;;;;4192007;28;20105;-63
2022/12/13 14:24:24;;;;;;;0.07;0.07;;;14.40;69.40;;;;;;4192176;28;20093;-64
2022/12/13 14:27:16;;;;;;;2.30;2.00;;;14.30;69.60;;;;;;4191679;28;20094;-63
2022/12/13 14:29:58;;;;;;;3.20;1.75;;;14.20;69.80;;;;;;4175968;28;20060;-63
2022/12/13 14:32:39;;;;;;;0.00;0.00;;;14.10;70.00;;;;;;4175416;28;20515;-63